createdAt,value
2022-09-27T00:00:12.238Z,1.70
2022-09-27T00:02:42.177Z,1.80
2022-09-27T00:05:13.856Z,2.20
2022-09-27T00:07:43.200Z,1.85
2022-09-27T00:10:13.065Z,1.65
2022-09-27T00:12:42.427Z,1.60
2022-09-27T00:15:12.935Z,2.00
2022-09-27T00:17:43.192Z,1.70
2022-09-27T00:20:13.375Z,1.77
2022-09-27T00:22:42.884Z,2.00
2022-09-27T00:25:12.192Z,1.80
2022-09-27T00:27:44.037Z,1.50
2022-09-27T00:30:14.525Z,1.33
2022-09-27T00:32:43.975Z,2.13
2022-09-27T00:35:13.848Z,3.30
2022-09-27T00:37:43.243Z,1.30
2022-09-27T00:40:17.368Z,1.33
2022-09-27T00:42:48.827Z,1.67
2022-09-27T00:45:19.268Z,1.25
2022-09-27T00:47:55.480Z,1.17
2022-09-27T00:50:32.446Z,1.30
2022-09-27T00:53:30.623Z,1.60
2022-09-27T00:56:04.076Z,1.38
2022-09-27T00:58:57.071Z,1.23
2022-09-27T01:01:26.565Z,1.73
2022-09-27T01:04:05.394Z,1.77
2022-09-27T01:06:34.839Z,1.85
2022-09-27T01:09:04.236Z,1.70
2022-09-27T01:11:50.585Z,1.70
2022-09-27T01:14:36.705Z,1.83
2022-09-27T01:17:14.667Z,1.52
2022-09-27T01:20:03.607Z,1.50
2022-09-27T01:23:14.490Z,1.83
2022-09-27T01:26:12.176Z,1.45
2022-09-27T01:29:05.610Z,1.38
2022-09-27T01:32:02.267Z,1.85
2022-09-27T01:34:43.730Z,1.40
2022-09-27T01:37:21.768Z,1.73
2022-09-27T01:40:00.176Z,1.58
2022-09-27T01:42:52.145Z,1.40
2022-09-27T01:45:30.434Z,1.60
2022-09-27T01:48:27.129Z,1.60
2022-09-27T01:51:19.242Z,1.23
2022-09-27T01:53:53.384Z,1.58
2022-09-27T01:56:49.000Z,1.60
2022-09-27T01:59:30.003Z,1.30
2022-09-27T02:02:29.705Z,1.58
2022-09-27T02:05:40.724Z,1.48
2022-09-27T02:08:42.541Z,1.27
2022-09-27T02:11:22.547Z,1.50
2022-09-27T02:14:09.166Z,2.25
2022-09-27T02:16:53.594Z,1.35
2022-09-27T02:20:03.987Z,1.17
2022-09-27T02:22:50.432Z,2.22
2022-09-27T02:25:45.409Z,1.88
2022-09-27T02:28:30.730Z,1.20
2022-09-27T02:31:00.576Z,1.73
2022-09-27T02:33:58.455Z,1.30
2022-09-27T02:36:27.903Z,1.30
2022-09-27T02:38:57.693Z,1.40
2022-09-27T02:41:27.190Z,1.63
2022-09-27T02:44:00.920Z,1.10
2022-09-27T02:46:59.700Z,1.10
2022-09-27T02:49:59.535Z,0.85
2022-09-27T02:53:09.030Z,1.85
2022-09-27T02:56:12.831Z,1.02
2022-09-27T02:59:21.523Z,1.10
2022-09-27T03:02:35.094Z,1.58
2022-09-27T03:05:30.270Z,0.70
2022-09-27T03:07:59.861Z,2.35
2022-09-27T03:10:32.857Z,1.50
2022-09-27T03:13:02.333Z,1.13
2022-09-27T03:15:32.099Z,1.42
2022-09-27T03:18:04.561Z,1.00
2022-09-27T03:20:52.342Z,1.33
2022-09-27T03:23:23.465Z,1.40
2022-09-27T03:25:53.494Z,1.40
2022-09-27T03:28:22.940Z,1.40
2022-09-27T03:30:52.718Z,1.27
2022-09-27T03:33:40.968Z,1.60
2022-09-27T03:36:13.104Z,1.50
2022-09-27T03:38:42.414Z,1.35
2022-09-27T03:41:15.517Z,1.20
2022-09-27T03:43:44.941Z,0.85
2022-09-27T03:46:14.837Z,1.25
2022-09-27T03:48:44.704Z,1.38
2022-09-27T03:51:14.214Z,1.60
2022-09-27T03:53:43.526Z,1.70
2022-09-27T03:56:13.503Z,1.02
2022-09-27T03:58:42.793Z,1.48
2022-09-27T04:01:12.205Z,1.35
2022-09-27T04:03:43.017Z,1.20
2022-09-27T04:06:31.090Z,1.13
2022-09-27T04:09:00.362Z,1.15
2022-09-27T04:11:42.517Z,1.65
2022-09-27T04:14:13.094Z,1.20
2022-09-27T04:17:00.846Z,1.10
2022-09-27T04:19:46.028Z,2.47
2022-09-27T04:22:15.852Z,1.20
2022-09-27T04:24:45.971Z,1.10
2022-09-27T04:27:27.522Z,1.38
2022-09-27T04:29:56.823Z,1.33
2022-09-27T04:32:45.970Z,1.50
2022-09-27T04:35:47.695Z,1.10
2022-09-27T04:38:17.129Z,1.55
2022-09-27T04:40:49.238Z,1.30
2022-09-27T04:45:49.001Z,1.38
2022-09-27T04:48:18.463Z,1.52
2022-09-27T04:50:48.782Z,1.33
2022-09-27T04:53:18.610Z,1.30
2022-09-27T04:55:52.267Z,1.35
2022-09-27T04:58:21.904Z,1.30
2022-09-27T05:00:52.466Z,0.88
2022-09-27T05:03:42.159Z,1.38
2022-09-27T05:06:16.267Z,1.15
2022-09-27T05:08:47.050Z,1.17
2022-09-27T05:11:28.258Z,0.95
2022-09-27T05:14:16.328Z,0.90
2022-09-27T05:17:10.041Z,1.10
2022-09-27T05:20:12.514Z,1.58
2022-09-27T05:23:05.355Z,0.98
2022-09-27T05:25:36.350Z,1.00
2022-09-27T05:28:06.256Z,0.82
2022-09-27T05:30:36.497Z,1.50
2022-09-27T05:33:10.494Z,0.60
2022-09-27T05:36:03.052Z,0.93
2022-09-27T05:38:33.492Z,1.38
2022-09-27T05:41:04.122Z,0.88
2022-09-27T05:43:33.852Z,1.40
2022-09-27T05:46:05.493Z,1.00
2022-09-27T05:48:37.087Z,1.02
2022-09-27T05:51:09.469Z,0.88
2022-09-27T05:56:19.879Z,0.90
2022-09-27T05:59:17.295Z,0.70
2022-09-27T06:02:09.663Z,1.25
2022-09-27T06:05:07.982Z,1.23
2022-09-27T06:08:00.509Z,0.80
2022-09-27T06:10:36.499Z,1.52
2022-09-27T06:13:14.278Z,1.23
2022-09-27T06:15:47.926Z,0.75
2022-09-27T06:20:51.150Z,1.00
2022-09-27T06:23:22.875Z,1.05
2022-09-27T06:25:54.436Z,0.73
2022-09-27T06:28:26.627Z,0.98
2022-09-27T06:33:36.210Z,0.70
2022-09-27T06:36:08.076Z,0.90
2022-09-27T06:38:39.544Z,0.77
2022-09-27T06:41:15.244Z,1.02
2022-09-27T06:44:03.545Z,0.80
2022-09-27T06:46:51.159Z,0.90
2022-09-27T06:49:50.101Z,1.00
2022-09-27T06:52:21.308Z,0.90
2022-09-27T06:54:50.630Z,0.82
2022-09-27T06:57:40.748Z,0.93
2022-09-27T07:00:23.068Z,0.98
2022-09-27T07:03:30.738Z,1.20
2022-09-27T07:06:25.010Z,1.08
2022-09-27T07:09:01.146Z,0.70
2022-09-27T07:11:31.303Z,1.15
2022-09-27T07:14:00.850Z,0.75
2022-09-27T07:16:31.528Z,1.02
2022-09-27T07:19:00.842Z,0.85
2022-09-27T07:21:30.120Z,1.17
2022-09-27T07:23:59.548Z,1.50
2022-09-27T07:26:29.698Z,1.00
2022-09-27T07:28:59.500Z,1.17
2022-09-27T07:31:30.445Z,0.80
2022-09-27T07:33:59.742Z,0.80
2022-09-27T07:36:30.154Z,1.10
2022-09-27T07:39:02.506Z,1.05
2022-09-27T07:41:34.968Z,1.13
2022-09-27T07:44:08.133Z,1.10
2022-09-27T07:46:43.936Z,1.05
2022-09-27T07:49:27.073Z,1.40
2022-09-27T07:52:20.094Z,1.30
2022-09-27T07:54:56.318Z,1.10
2022-09-27T07:57:37.798Z,1.33
2022-09-27T08:00:09.234Z,1.05
2022-09-27T08:02:42.683Z,1.70
2022-09-27T08:05:13.573Z,1.50
2022-09-27T08:07:44.288Z,1.20
2022-09-27T08:10:13.700Z,1.55
2022-09-27T08:12:43.130Z,1.73
2022-09-27T08:15:13.166Z,2.03
2022-09-27T08:17:42.467Z,1.33
2022-09-27T08:20:19.881Z,1.30
2022-09-27T08:23:10.012Z,1.10
2022-09-27T08:25:43.955Z,1.73
2022-09-27T08:28:32.010Z,1.50
2022-09-27T08:31:08.275Z,1.63
2022-09-27T08:33:41.397Z,1.90
2022-09-27T08:36:15.572Z,1.60
2022-09-27T08:38:45.205Z,1.83
2022-09-27T08:41:45.539Z,1.83
2022-09-27T08:44:50.279Z,1.73
2022-09-27T08:47:32.105Z,2.17
2022-09-27T08:50:07.007Z,2.20
2022-09-27T08:52:43.638Z,1.80
2022-09-27T08:55:40.532Z,2.15
2022-09-27T08:58:28.155Z,1.92
2022-09-27T09:01:02.946Z,2.42
2022-09-27T09:03:40.656Z,2.63
2022-09-27T09:06:21.721Z,2.65
2022-09-27T09:08:58.359Z,2.53
2022-09-27T09:12:02.558Z,2.75
2022-09-27T09:14:48.824Z,2.50
2022-09-27T09:17:30.634Z,2.70
2022-09-27T09:21:01.707Z,2.67
2022-09-27T09:23:51.969Z,2.70
2022-09-27T09:26:52.238Z,2.97
2022-09-27T09:29:24.558Z,2.63
2022-09-27T09:32:06.177Z,2.80
2022-09-27T09:34:47.761Z,2.88
2022-09-27T09:37:24.697Z,2.45
2022-09-27T09:39:58.895Z,2.75
2022-09-27T09:42:35.863Z,2.78
2022-09-27T09:45:23.551Z,3.00
2022-09-27T09:48:11.197Z,3.10
2022-09-27T09:50:51.193Z,3.47
2022-09-27T09:53:26.590Z,3.53
2022-09-27T09:56:04.308Z,3.78
2022-09-27T09:58:49.220Z,3.55
2022-09-27T10:01:40.956Z,3.90
2022-09-27T10:04:21.010Z,3.78
2022-09-27T10:06:52.124Z,3.70
2022-09-27T10:09:30.601Z,4.35
2022-09-27T10:12:18.418Z,4.00
2022-09-27T10:14:51.301Z,4.50
2022-09-27T10:17:25.550Z,4.00
2022-09-27T10:19:56.077Z,3.88
2022-09-27T10:22:31.200Z,4.93
2022-09-27T10:25:08.096Z,3.42
2022-09-27T10:28:00.163Z,3.58
2022-09-27T10:30:36.692Z,4.45
2022-09-27T10:33:21.647Z,4.38
2022-09-27T10:35:55.807Z,4.63
2022-09-27T10:38:39.399Z,3.55
2022-09-27T10:41:33.788Z,3.55
2022-09-27T10:44:20.306Z,3.80
2022-09-27T10:47:03.659Z,3.22
2022-09-27T10:49:46.004Z,2.85
2022-09-27T10:52:27.557Z,3.30
2022-09-27T10:55:10.885Z,3.22
2022-09-27T10:57:45.268Z,3.65
2022-09-27T11:00:33.456Z,3.53
2022-09-27T11:03:17.426Z,2.85
2022-09-27T11:05:47.680Z,3.10
2022-09-27T11:08:23.959Z,2.53
2022-09-27T11:11:19.992Z,2.40
2022-09-27T11:14:09.078Z,2.10
2022-09-27T11:16:57.871Z,2.47
2022-09-27T11:19:53.260Z,2.22
2022-09-27T11:22:49.800Z,2.15
2022-09-27T11:25:34.704Z,2.03
2022-09-27T11:28:38.445Z,2.25
2022-09-27T11:31:35.947Z,2.15
2022-09-27T11:34:28.931Z,1.73
2022-09-27T11:37:22.898Z,1.95
2022-09-27T11:40:11.907Z,2.50
2022-09-27T11:43:15.668Z,2.72
2022-09-27T11:49:07.892Z,1.92
2022-09-27T11:51:56.946Z,2.47
2022-09-27T11:54:53.507Z,1.75
2022-09-27T11:57:31.678Z,1.38
2022-09-27T12:00:24.442Z,1.27
2022-09-27T12:03:25.493Z,1.13
2022-09-27T12:06:10.873Z,1.15
2022-09-27T12:09:02.629Z,1.10
2022-09-27T12:11:40.669Z,1.25
2022-09-27T12:14:39.421Z,0.90
2022-09-27T12:17:16.175Z,1.20
2022-09-27T12:19:54.085Z,1.27
2022-09-27T12:23:00.068Z,1.17
2022-09-27T12:25:53.307Z,1.30
2022-09-27T12:28:51.098Z,1.13
2022-09-27T12:31:29.429Z,1.80
2022-09-27T12:34:35.775Z,1.23
2022-09-27T12:37:17.155Z,1.13
2022-09-27T12:39:55.710Z,1.10
2022-09-27T12:45:18.047Z,1.00
2022-09-27T12:48:14.283Z,1.48
2022-09-27T12:50:48.100Z,1.20
2022-09-27T12:53:24.782Z,1.00
2022-09-27T12:56:34.986Z,1.35
2022-09-27T12:59:28.168Z,1.17
2022-09-27T13:02:16.485Z,0.47
2022-09-27T13:05:20.084Z,0.73
2022-09-27T13:07:58.394Z,1.02
2022-09-27T13:10:51.719Z,0.60
2022-09-27T13:13:36.548Z,0.80
2022-09-27T13:16:09.099Z,0.65
2022-09-27T13:19:04.581Z,0.60
2022-09-27T13:21:50.025Z,0.82
2022-09-27T13:24:48.651Z,0.60
2022-09-27T13:27:36.518Z,0.50
2022-09-27T13:30:10.410Z,1.55
2022-09-27T13:32:42.943Z,0.63
2022-09-27T13:35:24.417Z,0.73
2022-09-27T13:38:26.219Z,0.60
2022-09-27T13:40:56.989Z,1.00
2022-09-27T13:43:49.827Z,0.30
2022-09-27T13:46:38.479Z,1.00
2022-09-27T13:49:24.111Z,0.40
2022-09-27T13:52:33.960Z,0.60
2022-09-27T13:55:49.358Z,0.60
2022-09-27T13:58:51.871Z,0.85
2022-09-27T14:01:50.735Z,0.60
2022-09-27T14:04:31.648Z,0.90
2022-09-27T14:07:04.400Z,0.55
2022-09-27T14:09:36.898Z,0.70
2022-09-27T14:12:24.488Z,0.68
2022-09-27T14:14:58.203Z,1.00
2022-09-27T14:17:28.488Z,0.90
2022-09-27T14:19:57.892Z,1.00
2022-09-27T14:22:28.008Z,0.80
2022-09-27T14:25:04.075Z,1.05
2022-09-27T14:27:41.859Z,1.27
2022-09-27T14:30:32.950Z,1.30
2022-09-27T14:33:31.320Z,1.27
2022-09-27T14:36:49.612Z,1.10
2022-09-27T14:39:29.360Z,1.02
2022-09-27T14:41:58.788Z,1.00
2022-09-27T14:44:28.799Z,0.85
2022-09-27T14:47:21.250Z,1.30
2022-09-27T14:49:56.805Z,1.20
2022-09-27T14:52:31.364Z,1.15
2022-09-27T14:55:19.765Z,1.30
2022-09-27T14:57:51.992Z,2.80
2022-09-27T15:00:26.264Z,1.50
2022-09-27T15:02:59.781Z,1.38
2022-09-27T15:05:32.208Z,1.98
2022-09-27T15:10:34.126Z,1.50
2022-09-27T15:13:05.273Z,1.83
2022-09-27T15:15:40.218Z,1.60
2022-09-27T15:18:34.229Z,1.48
2022-09-27T15:21:03.923Z,1.35
2022-09-27T15:23:39.335Z,1.85
2022-09-27T15:26:14.244Z,1.83
2022-09-27T15:28:53.777Z,1.38
2022-09-27T15:31:39.457Z,1.58
2022-09-27T15:34:08.828Z,1.63
2022-09-27T15:36:51.285Z,1.98
2022-09-27T15:42:09.301Z,3.75
2022-09-27T15:44:58.285Z,2.50
2022-09-27T15:47:38.678Z,1.70
2022-09-27T15:50:19.889Z,2.00
2022-09-27T15:52:57.624Z,2.03
2022-09-27T15:55:32.034Z,1.63
2022-09-27T15:58:10.585Z,1.90
2022-09-27T16:00:39.926Z,2.10
2022-09-27T16:03:09.188Z,2.08
2022-09-27T16:05:38.429Z,1.90
2022-09-27T16:08:07.698Z,2.20
2022-09-27T16:10:50.600Z,1.92
2022-09-27T16:13:19.889Z,2.17
2022-09-27T16:15:50.398Z,2.30
2022-09-27T16:18:20.002Z,3.13
2022-09-27T16:20:49.254Z,1.90
2022-09-27T16:23:18.551Z,2.47
2022-09-27T16:25:47.769Z,1.92
2022-09-27T16:28:17.043Z,2.10
2022-09-27T16:30:47.979Z,1.70
2022-09-27T16:33:17.305Z,1.77
2022-09-27T16:35:46.672Z,1.77
2022-09-27T16:38:16.797Z,1.98
2022-09-27T16:40:46.085Z,2.00
2022-09-27T16:43:15.364Z,1.92
2022-09-27T16:45:44.632Z,1.90
2022-09-27T16:48:13.903Z,1.70
2022-09-27T16:50:55.758Z,2.72
2022-09-27T16:53:25.057Z,2.25
2022-09-27T16:55:54.410Z,2.38
2022-09-27T16:58:23.696Z,2.47
2022-09-27T17:00:53.029Z,2.92
2022-09-27T17:03:22.306Z,2.17
2022-09-27T17:05:51.606Z,1.75
2022-09-27T17:08:20.828Z,1.90
2022-09-27T17:10:50.089Z,1.70
2022-09-27T17:13:19.351Z,1.98
2022-09-27T17:15:48.744Z,1.70
2022-09-27T17:18:18.100Z,1.52
2022-09-27T17:20:47.399Z,2.35
2022-09-27T17:23:16.626Z,1.92
2022-09-27T17:25:46.040Z,2.28
2022-09-27T17:28:15.314Z,2.55
2022-09-27T17:30:45.094Z,2.47
2022-09-27T17:33:14.405Z,2.03
2022-09-27T17:35:45.023Z,2.00
2022-09-27T17:38:14.352Z,2.08
2022-09-27T17:40:43.644Z,1.83
2022-09-27T17:43:13.799Z,2.40
2022-09-27T17:45:43.051Z,2.17
2022-09-27T17:48:24.803Z,3.10
2022-09-27T17:50:54.045Z,2.50
2022-09-27T17:53:25.974Z,2.45
2022-09-27T17:55:55.822Z,1.98
2022-09-27T17:58:25.104Z,1.90
2022-09-27T18:00:57.294Z,2.75
2022-09-27T18:03:28.513Z,2.30
2022-09-27T18:05:58.060Z,2.28
2022-09-27T18:08:31.980Z,2.63
2022-09-27T18:11:08.386Z,3.40
2022-09-27T18:13:40.614Z,1.92
2022-09-27T18:16:18.637Z,2.42
2022-09-27T18:18:50.778Z,2.05
2022-09-27T18:21:23.303Z,2.70
2022-09-27T18:23:54.292Z,2.13
2022-09-27T18:26:25.135Z,2.10
2022-09-27T18:28:57.078Z,2.50
2022-09-27T18:31:26.414Z,2.28
2022-09-27T18:33:55.961Z,2.25
2022-09-27T18:36:27.561Z,2.08
2022-09-27T18:39:05.030Z,1.90
2022-09-27T18:41:37.344Z,2.05
2022-09-27T18:46:38.726Z,2.42
2022-09-27T18:49:10.786Z,2.00
2022-09-27T18:51:43.651Z,2.30
2022-09-27T18:54:19.647Z,2.40
2022-09-27T18:56:50.504Z,2.38
2022-09-27T18:59:20.801Z,2.20
2022-09-27T19:01:50.447Z,2.30
2022-09-27T19:04:24.921Z,2.22
2022-09-27T19:06:55.760Z,2.80
2022-09-27T19:09:26.719Z,2.65
2022-09-27T19:11:56.588Z,2.35
2022-09-27T19:14:26.107Z,2.55
2022-09-27T19:16:55.438Z,2.35
2022-09-27T19:19:24.784Z,2.85
2022-09-27T19:21:54.039Z,2.63
2022-09-27T19:24:23.602Z,2.80
2022-09-27T19:26:53.893Z,2.55
2022-09-27T19:29:23.140Z,2.75
2022-09-27T19:31:52.425Z,2.53
2022-09-27T19:34:21.702Z,2.50
2022-09-27T19:36:50.932Z,3.05
2022-09-27T19:39:20.301Z,3.03
2022-09-27T19:41:49.544Z,2.40
2022-09-27T19:44:18.770Z,2.83
2022-09-27T19:46:48.275Z,2.80
2022-09-27T19:49:18.831Z,2.65
2022-09-27T19:51:48.152Z,2.58
2022-09-27T19:54:17.772Z,3.75
2022-09-27T19:56:49.127Z,2.67
2022-09-27T19:59:21.094Z,2.70
2022-09-27T20:01:50.922Z,3.40
2022-09-27T20:04:22.686Z,2.78
2022-09-27T20:06:54.089Z,2.70
2022-09-27T20:09:23.977Z,2.60
2022-09-27T20:11:53.410Z,3.20
2022-09-27T20:14:22.759Z,3.85
2022-09-27T20:16:52.140Z,3.38
2022-09-27T20:19:21.437Z,3.15
2022-09-27T20:21:50.767Z,3.20
2022-09-27T20:24:20.500Z,3.45
2022-09-27T20:26:50.793Z,3.90
2022-09-27T20:29:20.107Z,3.30
2022-09-27T20:32:15.564Z,3.58
2022-09-27T20:34:38.656Z,3.28
2022-09-27T20:37:07.889Z,2.97
2022-09-27T20:39:37.179Z,3.10
2022-09-27T20:42:06.579Z,3.63
2022-09-27T20:44:35.858Z,3.28
2022-09-27T20:47:05.640Z,3.90
2022-09-27T20:49:34.970Z,3.70
2022-09-27T20:52:04.438Z,3.20
2022-09-27T20:54:33.848Z,2.90
2022-09-27T20:57:03.166Z,2.85
2022-09-27T20:59:33.167Z,2.95
2022-09-27T21:02:02.488Z,2.72
2022-09-27T21:04:32.043Z,2.75
2022-09-27T21:07:03.560Z,2.47
2022-09-27T21:09:34.292Z,2.50
2022-09-27T21:12:03.771Z,2.60
2022-09-27T21:14:33.006Z,2.95
2022-09-27T21:17:02.402Z,2.55
2022-09-27T21:19:31.847Z,2.47
2022-09-27T21:22:01.081Z,2.40
2022-09-27T21:24:30.335Z,2.33
2022-09-27T21:27:00.374Z,2.33
2022-09-27T21:29:29.785Z,2.20
2022-09-27T21:31:59.123Z,2.30
2022-09-27T21:34:28.419Z,2.08
2022-09-27T21:36:57.904Z,2.10
2022-09-27T21:39:27.160Z,2.47
2022-09-27T21:41:56.405Z,2.40
2022-09-27T21:44:25.648Z,1.75
2022-09-27T21:46:54.988Z,2.20
2022-09-27T21:49:24.272Z,2.60
2022-09-27T21:51:53.545Z,2.28
2022-09-27T21:54:22.767Z,2.60
2022-09-27T21:56:51.987Z,2.55
2022-09-27T21:59:21.223Z,3.20
2022-09-27T22:01:50.579Z,2.83
2022-09-27T22:04:19.972Z,3.20
2022-09-27T22:06:49.479Z,3.03
2022-09-27T22:09:19.571Z,2.97
2022-09-27T22:11:49.359Z,2.70
2022-09-27T22:14:20.768Z,2.90
2022-09-27T22:16:50.632Z,2.83
2022-09-27T22:19:20.914Z,3.25
2022-09-27T22:21:50.237Z,2.40
2022-09-27T22:24:20.905Z,2.90
2022-09-27T22:26:53.919Z,3.28
2022-09-27T22:29:23.456Z,3.03
2022-09-27T22:31:52.922Z,3.38
2022-09-27T22:34:29.188Z,3.42
2022-09-27T22:37:00.894Z,3.22
2022-09-27T22:39:30.479Z,3.08
2022-09-27T22:41:59.792Z,2.97
2022-09-27T22:44:29.067Z,3.03
2022-09-27T22:46:58.399Z,3.58
2022-09-27T22:49:27.772Z,3.40
2022-09-27T22:51:57.074Z,2.92
2022-09-27T22:54:26.395Z,3.08
2022-09-27T22:56:57.459Z,2.95
2022-09-27T22:59:28.423Z,3.30
2022-09-27T23:01:57.980Z,2.90
2022-09-27T23:04:27.459Z,3.30
2022-09-27T23:06:56.750Z,3.55
2022-09-27T23:09:26.686Z,3.47
2022-09-27T23:11:56.067Z,3.60
2022-09-27T23:14:26.238Z,3.20
2022-09-27T23:16:55.524Z,3.53
2022-09-27T23:19:26.558Z,3.00
2022-09-27T23:21:55.968Z,3.15
2022-09-27T23:24:25.227Z,3.25
2022-09-27T23:27:15.715Z,3.45
2022-09-27T23:29:46.071Z,3.35
2022-09-27T23:32:15.417Z,4.05
2022-09-27T23:34:44.681Z,3.35
2022-09-27T23:37:16.443Z,3.30
2022-09-27T23:39:45.679Z,3.10
2022-09-27T23:42:15.149Z,3.88
2022-09-27T23:44:44.766Z,3.50
2022-09-27T23:47:14.298Z,3.45
2022-09-27T23:49:43.726Z,3.55
2022-09-27T23:52:12.989Z,3.80
2022-09-27T23:54:42.276Z,3.45
2022-09-27T23:57:11.613Z,4.25
2022-09-27T23:59:41.136Z,3.70
